sensor_id;sensor_type;location;lat;lon;timestamp;temperature;humidity
15103;DHT22;7652;53.584;9.998;2023-02-28T00:00:28;5.60;99.90
15103;DHT22;7652;53.584;9.998;2023-02-28T00:03:31;5.30;99.90
15103;DHT22;7652;53.584;9.998;2023-02-28T00:06:36;5.40;99.90
15103;DHT22;7652;53.584;9.998;2023-02-28T00:09:39;5.40;99.90
15103;DHT22;7652;53.584;9.998;2023-02-28T00:12:44;5.30;99.90
15103;DHT22;7652;53.584;9.998;2023-02-28T00:15:47;5.20;99.90
15103;DHT22;7652;53.584;9.998;2023-02-28T00:18:50;5.10;99.90
15103;DHT22;7652;53.584;9.998;2023-02-28T00:21:53;5.10;99.90
15103;DHT22;7652;53.584;9.998;2023-02-28T00:24:56;5.10;99.90
15103;DHT22;7652;53.584;9.998;2023-02-28T00:28:00;5.10;99.90
15103;DHT22;7652;53.584;9.998;2023-02-28T00:31:04;5.10;99.90
15103;DHT22;7652;53.584;9.998;2023-02-28T00:34:07;5.10;99.90
15103;DHT22;7652;53.584;9.998;2023-02-28T00:37:11;5.10;99.90
15103;DHT22;7652;53.584;9.998;2023-02-28T00:40:14;5.10;99.90
15103;DHT22;7652;53.584;9.998;2023-02-28T00:43:19;5.10;99.90
15103;DHT22;7652;53.584;9.998;2023-02-28T00:46:22;5.10;99.90
15103;DHT22;7652;53.584;9.998;2023-02-28T00:49:25;5.00;99.90
15103;DHT22;7652;53.584;9.998;2023-02-28T00:52:29;5.00;99.90
15103;DHT22;7652;53.584;9.998;2023-02-28T00:55:32;5.10;99.90
15103;DHT22;7652;53.584;9.998;2023-02-28T00:58:36;5.10;99.90
15103;DHT22;7652;53.584;9.998;2023-02-28T01:01:39;5.20;99.90
15103;DHT22;7652;53.584;9.998;2023-02-28T01:04:42;5.20;99.90
15103;DHT22;7652;53.584;9.998;2023-02-28T01:07:45;5.10;99.90
15103;DHT22;7652;53.584;9.998;2023-02-28T01:10:48;5.10;99.90
15103;DHT22;7652;53.584;9.998;2023-02-28T01:13:52;5.10;99.90
15103;DHT22;7652;53.584;9.998;2023-02-28T01:16:55;5.10;99.90
15103;DHT22;7652;53.584;9.998;2023-02-28T01:19:58;5.00;99.90
15103;DHT22;7652;53.584;9.998;2023-02-28T01:23:01;5.00;99.90
15103;DHT22;7652;53.584;9.998;2023-02-28T01:26:06;5.00;99.90
15103;DHT22;7652;53.584;9.998;2023-02-28T01:29:10;5.10;99.90
15103;DHT22;7652;53.584;9.998;2023-02-28T01:32:13;5.10;99.90
15103;DHT22;7652;53.584;9.998;2023-02-28T01:35:16;4.90;99.90
15103;DHT22;7652;53.584;9.998;2023-02-28T01:38:19;4.90;99.90
15103;DHT22;7652;53.584;9.998;2023-02-28T01:41:26;4.90;99.90
15103;DHT22;7652;53.584;9.998;2023-02-28T01:44:58;5.00;99.90
15103;DHT22;7652;53.584;9.998;2023-02-28T01:48:03;4.90;99.90
15103;DHT22;7652;53.584;9.998;2023-02-28T01:51:11;4.90;99.90
15103;DHT22;7652;53.584;9.998;2023-02-28T01:54:20;4.90;99.90
15103;DHT22;7652;53.584;9.998;2023-02-28T01:57:28;4.90;99.90
15103;DHT22;7652;53.584;9.998;2023-02-28T02:00:34;4.90;99.90
15103;DHT22;7652;53.584;9.998;2023-02-28T02:03:37;4.90;99.90
15103;DHT22;7652;53.584;9.998;2023-02-28T02:06:43;4.80;99.90
15103;DHT22;7652;53.584;9.998;2023-02-28T02:09:46;4.80;99.90
15103;DHT22;7652;53.584;9.998;2023-02-28T02:13:18;4.80;99.90
15103;DHT22;7652;53.584;9.998;2023-02-28T02:16:35;4.80;99.90
15103;DHT22;7652;53.584;9.998;2023-02-28T02:27:08;4.60;99.90
15103;DHT22;7652;53.584;9.998;2023-02-28T02:30:46;4.70;99.90
15103;DHT22;7652;53.584;9.998;2023-02-28T02:34:24;4.50;99.90
15103;DHT22;7652;53.584;9.998;2023-02-28T02:37:35;4.50;99.90
15103;DHT22;7652;53.584;9.998;2023-02-28T02:40:46;4.50;99.90
15103;DHT22;7652;53.584;9.998;2023-02-28T02:43:52;4.50;99.90
15103;DHT22;7652;53.584;9.998;2023-02-28T02:47:01;4.50;99.90
15103;DHT22;7652;53.584;9.998;2023-02-28T02:50:12;4.30;99.90
15103;DHT22;7652;53.584;9.998;2023-02-28T02:53:18;4.10;99.90
15103;DHT22;7652;53.584;9.998;2023-02-28T02:56:27;4.00;99.90
15103;DHT22;7652;53.584;9.998;2023-02-28T02:59:32;4.00;99.90
15103;DHT22;7652;53.584;9.998;2023-02-28T03:02:37;3.80;99.90
15103;DHT22;7652;53.584;9.998;2023-02-28T03:05:46;3.60;99.90
15103;DHT22;7652;53.584;9.998;2023-02-28T03:08:49;3.60;99.90
15103;DHT22;7652;53.584;9.998;2023-02-28T03:11:53;3.50;99.90
15103;DHT22;7652;53.584;9.998;2023-02-28T03:15:08;3.50;99.90
15103;DHT22;7652;53.584;9.998;2023-02-28T03:18:21;3.40;99.90
15103;DHT22;7652;53.584;9.998;2023-02-28T03:21:34;3.30;99.90
15103;DHT22;7652;53.584;9.998;2023-02-28T03:24:43;3.30;99.90
15103;DHT22;7652;53.584;9.998;2023-02-28T03:27:55;3.10;99.90
15103;DHT22;7652;53.584;9.998;2023-02-28T03:31:07;3.10;99.90
15103;DHT22;7652;53.584;9.998;2023-02-28T03:34:19;3.10;99.90
15103;DHT22;7652;53.584;9.998;2023-02-28T03:37:27;3.10;99.90
15103;DHT22;7652;53.584;9.998;2023-02-28T03:40:33;3.00;99.90
15103;DHT22;7652;53.584;9.998;2023-02-28T03:43:40;2.90;99.90
15103;DHT22;7652;53.584;9.998;2023-02-28T03:46:48;2.90;99.90
15103;DHT22;7652;53.584;9.998;2023-02-28T03:49:57;2.90;99.90
15103;DHT22;7652;53.584;9.998;2023-02-28T03:53:06;2.90;99.90
15103;DHT22;7652;53.584;9.998;2023-02-28T03:56:14;2.90;99.90
15103;DHT22;7652;53.584;9.998;2023-02-28T03:59:22;2.90;99.90
15103;DHT22;7652;53.584;9.998;2023-02-28T04:02:28;2.90;99.90
15103;DHT22;7652;53.584;9.998;2023-02-28T04:05:31;2.80;99.90
15103;DHT22;7652;53.584;9.998;2023-02-28T04:08:36;2.80;99.90
15103;DHT22;7652;53.584;9.998;2023-02-28T04:11:40;2.80;99.90
15103;DHT22;7652;53.584;9.998;2023-02-28T04:14:44;2.80;99.90
15103;DHT22;7652;53.584;9.998;2023-02-28T04:17:47;2.70;99.90
15103;DHT22;7652;53.584;9.998;2023-02-28T04:20:50;2.60;99.90
15103;DHT22;7652;53.584;9.998;2023-02-28T04:23:54;2.60;99.90
15103;DHT22;7652;53.584;9.998;2023-02-28T04:26:58;2.50;99.90
15103;DHT22;7652;53.584;9.998;2023-02-28T04:30:01;2.50;99.90
15103;DHT22;7652;53.584;9.998;2023-02-28T04:33:04;2.40;99.90
15103;DHT22;7652;53.584;9.998;2023-02-28T04:36:08;2.40;99.90
15103;DHT22;7652;53.584;9.998;2023-02-28T04:39:12;2.40;99.90
15103;DHT22;7652;53.584;9.998;2023-02-28T04:42:16;2.40;99.90
15103;DHT22;7652;53.584;9.998;2023-02-28T04:45:19;2.30;99.90
15103;DHT22;7652;53.584;9.998;2023-02-28T04:48:23;2.30;99.90
15103;DHT22;7652;53.584;9.998;2023-02-28T04:51:26;2.30;99.90
15103;DHT22;7652;53.584;9.998;2023-02-28T04:54:31;2.30;99.90
15103;DHT22;7652;53.584;9.998;2023-02-28T04:57:34;2.30;99.90
15103;DHT22;7652;53.584;9.998;2023-02-28T05:00:37;2.20;99.90
15103;DHT22;7652;53.584;9.998;2023-02-28T05:03:40;2.10;99.90
15103;DHT22;7652;53.584;9.998;2023-02-28T05:06:43;2.10;99.90
15103;DHT22;7652;53.584;9.998;2023-02-28T05:09:47;2.10;99.90
15103;DHT22;7652;53.584;9.998;2023-02-28T05:12:50;2.10;99.90
15103;DHT22;7652;53.584;9.998;2023-02-28T05:15:53;2.00;99.90
15103;DHT22;7652;53.584;9.998;2023-02-28T05:18:56;2.00;99.90
15103;DHT22;7652;53.584;9.998;2023-02-28T05:21:59;2.00;99.90
15103;DHT22;7652;53.584;9.998;2023-02-28T05:25:04;1.90;99.90
15103;DHT22;7652;53.584;9.998;2023-02-28T05:28:08;1.90;99.90
15103;DHT22;7652;53.584;9.998;2023-02-28T05:31:11;1.80;99.90
15103;DHT22;7652;53.584;9.998;2023-02-28T05:34:14;1.80;99.90
15103;DHT22;7652;53.584;9.998;2023-02-28T05:37:18;1.70;99.90
15103;DHT22;7652;53.584;9.998;2023-02-28T05:40:24;1.60;99.90
15103;DHT22;7652;53.584;9.998;2023-02-28T05:43:27;1.50;99.90
15103;DHT22;7652;53.584;9.998;2023-02-28T05:46:30;1.50;99.90
15103;DHT22;7652;53.584;9.998;2023-02-28T05:49:33;1.50;99.90
15103;DHT22;7652;53.584;9.998;2023-02-28T05:52:36;1.50;99.90
15103;DHT22;7652;53.584;9.998;2023-02-28T05:55:41;1.50;99.90
15103;DHT22;7652;53.584;9.998;2023-02-28T05:58:44;1.50;99.90
15103;DHT22;7652;53.584;9.998;2023-02-28T06:01:47;1.50;99.90
15103;DHT22;7652;53.584;9.998;2023-02-28T06:04:50;1.50;99.90
15103;DHT22;7652;53.584;9.998;2023-02-28T06:07:53;1.40;99.90
15103;DHT22;7652;53.584;9.998;2023-02-28T06:10:57;1.40;99.90
15103;DHT22;7652;53.584;9.998;2023-02-28T06:14:01;1.40;99.90
15103;DHT22;7652;53.584;9.998;2023-02-28T06:17:04;1.40;99.90
15103;DHT22;7652;53.584;9.998;2023-02-28T06:20:08;1.40;99.90
15103;DHT22;7652;53.584;9.998;2023-02-28T06:23:12;1.30;99.90
15103;DHT22;7652;53.584;9.998;2023-02-28T06:26:16;1.40;99.90
15103;DHT22;7652;53.584;9.998;2023-02-28T06:29:19;1.40;99.90
15103;DHT22;7652;53.584;9.998;2023-02-28T06:32:22;1.40;99.90
15103;DHT22;7652;53.584;9.998;2023-02-28T06:35:25;1.30;99.90
15103;DHT22;7652;53.584;9.998;2023-02-28T06:38:28;1.30;99.90
15103;DHT22;7652;53.584;9.998;2023-02-28T06:41:33;1.20;99.90
15103;DHT22;7652;53.584;9.998;2023-02-28T06:44:55;1.30;99.90
15103;DHT22;7652;53.584;9.998;2023-02-28T06:47:59;1.40;99.90
15103;DHT22;7652;53.584;9.998;2023-02-28T06:51:03;1.40;99.90
15103;DHT22;7652;53.584;9.998;2023-02-28T06:54:07;1.40;99.90
15103;DHT22;7652;53.584;9.998;2023-02-28T06:57:12;1.50;99.90
15103;DHT22;7652;53.584;9.998;2023-02-28T07:00:15;1.50;99.90
15103;DHT22;7652;53.584;9.998;2023-02-28T07:03:19;1.50;99.90
15103;DHT22;7652;53.584;9.998;2023-02-28T07:06:22;1.50;99.90
15103;DHT22;7652;53.584;9.998;2023-02-28T07:09:25;1.60;99.90
15103;DHT22;7652;53.584;9.998;2023-02-28T07:12:33;1.70;99.90
15103;DHT22;7652;53.584;9.998;2023-02-28T07:15:36;1.70;99.90
15103;DHT22;7652;53.584;9.998;2023-02-28T07:18:43;1.80;99.90
15103;DHT22;7652;53.584;9.998;2023-02-28T07:21:46;1.80;99.90
15103;DHT22;7652;53.584;9.998;2023-02-28T07:24:49;1.90;99.90
15103;DHT22;7652;53.584;9.998;2023-02-28T07:27:55;1.90;99.90
15103;DHT22;7652;53.584;9.998;2023-02-28T07:31:03;2.00;99.90
15103;DHT22;7652;53.584;9.998;2023-02-28T07:34:06;2.10;99.90
15103;DHT22;7652;53.584;9.998;2023-02-28T07:37:10;2.20;99.90
15103;DHT22;7652;53.584;9.998;2023-02-28T07:40:13;2.20;99.90
15103;DHT22;7652;53.584;9.998;2023-02-28T07:43:18;2.40;99.90
15103;DHT22;7652;53.584;9.998;2023-02-28T07:46:21;2.50;99.90
15103;DHT22;7652;53.584;9.998;2023-02-28T07:49:24;2.70;99.90
15103;DHT22;7652;53.584;9.998;2023-02-28T07:52:27;3.40;99.90
15103;DHT22;7652;53.584;9.998;2023-02-28T07:55:30;4.30;99.90
15103;DHT22;7652;53.584;9.998;2023-02-28T07:58:35;5.30;99.90
15103;DHT22;7652;53.584;9.998;2023-02-28T08:01:38;6.00;99.90
15103;DHT22;7652;53.584;9.998;2023-02-28T08:04:41;6.00;99.90
15103;DHT22;7652;53.584;9.998;2023-02-28T08:07:44;5.90;99.90
15103;DHT22;7652;53.584;9.998;2023-02-28T08:10:47;6.30;99.90
15103;DHT22;7652;53.584;9.998;2023-02-28T08:13:51;6.30;99.90
15103;DHT22;7652;53.584;9.998;2023-02-28T08:16:54;6.40;99.90
15103;DHT22;7652;53.584;9.998;2023-02-28T08:19:57;6.50;99.90
15103;DHT22;7652;53.584;9.998;2023-02-28T08:23:00;6.90;99.90
15103;DHT22;7652;53.584;9.998;2023-02-28T08:26:04;7.20;99.90
15103;DHT22;7652;53.584;9.998;2023-02-28T08:29:08;7.10;99.90
15103;DHT22;7652;53.584;9.998;2023-02-28T08:32:11;7.10;99.90
15103;DHT22;7652;53.584;9.998;2023-02-28T08:35:30;7.20;99.90
15103;DHT22;7652;53.584;9.998;2023-02-28T08:38:33;7.50;99.90
15103;DHT22;7652;53.584;9.998;2023-02-28T08:41:36;8.10;99.90
15103;DHT22;7652;53.584;9.998;2023-02-28T08:44:40;8.90;99.90
15103;DHT22;7652;53.584;9.998;2023-02-28T08:47:44;9.60;99.90
15103;DHT22;7652;53.584;9.998;2023-02-28T08:50:55;10.50;99.90
15103;DHT22;7652;53.584;9.998;2023-02-28T08:54:08;11.00;99.90
15103;DHT22;7652;53.584;9.998;2023-02-28T08:57:12;11.40;99.70
15103;DHT22;7652;53.584;9.998;2023-02-28T09:00:17;11.70;98.60
15103;DHT22;7652;53.584;9.998;2023-02-28T09:03:20;11.50;97.20
15103;DHT22;7652;53.584;9.998;2023-02-28T09:06:26;10.90;96.90
15103;DHT22;7652;53.584;9.998;2023-02-28T09:09:30;9.90;97.70
15103;DHT22;7652;53.584;9.998;2023-02-28T09:12:34;9.50;99.10
15103;DHT22;7652;53.584;9.998;2023-02-28T09:15:39;8.90;99.90
15103;DHT22;7652;53.584;9.998;2023-02-28T09:18:42;8.90;99.90
15103;DHT22;7652;53.584;9.998;2023-02-28T09:21:45;9.20;99.90
15103;DHT22;7652;53.584;9.998;2023-02-28T09:24:48;9.50;99.20
15103;DHT22;7652;53.584;9.998;2023-02-28T09:27:51;10.10;99.20
15103;DHT22;7652;53.584;9.998;2023-02-28T09:30:56;10.20;97.80
15103;DHT22;7652;53.584;9.998;2023-02-28T09:34:00;10.50;97.50
15103;DHT22;7652;53.584;9.998;2023-02-28T09:37:03;10.70;97.00
15103;DHT22;7652;53.584;9.998;2023-02-28T09:40:09;10.70;97.40
15103;DHT22;7652;53.584;9.998;2023-02-28T09:43:14;11.20;96.50
15103;DHT22;7652;53.584;9.998;2023-02-28T09:46:27;11.50;95.20
15103;DHT22;7652;53.584;9.998;2023-02-28T09:49:37;11.70;95.20
15103;DHT22;7652;53.584;9.998;2023-02-28T09:52:42;11.80;94.50
15103;DHT22;7652;53.584;9.998;2023-02-28T09:55:50;11.90;94.90
15103;DHT22;7652;53.584;9.998;2023-02-28T09:58:56;11.60;95.20
15103;DHT22;7652;53.584;9.998;2023-02-28T10:02:13;12.10;94.30
15103;DHT22;7652;53.584;9.998;2023-02-28T10:05:22;12.60;92.80
15103;DHT22;7652;53.584;9.998;2023-02-28T10:08:28;13.10;91.70
15103;DHT22;7652;53.584;9.998;2023-02-28T10:11:34;13.70;90.70
15103;DHT22;7652;53.584;9.998;2023-02-28T10:14:39;14.10;88.80
15103;DHT22;7652;53.584;9.998;2023-02-28T10:17:53;14.30;87.00
15103;DHT22;7652;53.584;9.998;2023-02-28T10:21:17;14.50;85.20
15103;DHT22;7652;53.584;9.998;2023-02-28T10:24:27;14.00;85.70
15103;DHT22;7652;53.584;9.998;2023-02-28T10:27:32;13.40;85.80
15103;DHT22;7652;53.584;9.998;2023-02-28T10:30:37;12.90;86.10
15103;DHT22;7652;53.584;9.998;2023-02-28T10:33:42;12.30;88.10
15103;DHT22;7652;53.584;9.998;2023-02-28T10:36:45;11.90;90.00
15103;DHT22;7652;53.584;9.998;2023-02-28T10:39:49;11.70;90.90
15103;DHT22;7652;53.584;9.998;2023-02-28T10:42:55;11.50;90.70
15103;DHT22;7652;53.584;9.998;2023-02-28T10:46:02;11.10;91.40
15103;DHT22;7652;53.584;9.998;2023-02-28T10:49:13;11.40;91.20
15103;DHT22;7652;53.584;9.998;2023-02-28T10:52:33;12.00;90.10
15103;DHT22;7652;53.584;9.998;2023-02-28T10:55:38;12.10;90.30
15103;DHT22;7652;53.584;9.998;2023-02-28T10:58:53;13.40;85.70
15103;DHT22;7652;53.584;9.998;2023-02-28T11:01:57;14.00;83.60
15103;DHT22;7652;53.584;9.998;2023-02-28T11:05:02;14.50;81.70
15103;DHT22;7652;53.584;9.998;2023-02-28T11:08:11;14.50;80.40
15103;DHT22;7652;53.584;9.998;2023-02-28T11:11:16;15.40;76.50
15103;DHT22;7652;53.584;9.998;2023-02-28T11:14:21;15.80;73.30
15103;DHT22;7652;53.584;9.998;2023-02-28T11:17:26;16.00;72.70
15103;DHT22;7652;53.584;9.998;2023-02-28T11:20:33;16.10;72.10
15103;DHT22;7652;53.584;9.998;2023-02-28T11:23:40;17.10;67.80
15103;DHT22;7652;53.584;9.998;2023-02-28T11:26:45;17.60;64.20
15103;DHT22;7652;53.584;9.998;2023-02-28T11:29:50;18.00;62.20
15103;DHT22;7652;53.584;9.998;2023-02-28T11:32:53;18.50;61.00
15103;DHT22;7652;53.584;9.998;2023-02-28T11:36:01;18.10;59.60
15103;DHT22;7652;53.584;9.998;2023-02-28T11:39:10;16.10;63.10
15103;DHT22;7652;53.584;9.998;2023-02-28T11:42:34;16.90;60.60
15103;DHT22;7652;53.584;9.998;2023-02-28T11:45:45;17.50;60.90
15103;DHT22;7652;53.584;9.998;2023-02-28T11:48:58;17.30;60.30
15103;DHT22;7652;53.584;9.998;2023-02-28T11:52:18;18.20;58.20
15103;DHT22;7652;53.584;9.998;2023-02-28T11:55:26;16.60;59.70
15103;DHT22;7652;53.584;9.998;2023-02-28T11:58:38;17.90;58.70
15103;DHT22;7652;53.584;9.998;2023-02-28T12:02:00;18.90;55.80
15103;DHT22;7652;53.584;9.998;2023-02-28T12:05:20;19.50;54.50
15103;DHT22;7652;53.584;9.998;2023-02-28T12:08:42;19.80;53.50
15103;DHT22;7652;53.584;9.998;2023-02-28T12:11:51;19.00;54.00
15103;DHT22;7652;53.584;9.998;2023-02-28T12:15:23;20.30;52.30
15103;DHT22;7652;53.584;9.998;2023-02-28T12:18:44;19.00;52.70
15103;DHT22;7652;53.584;9.998;2023-02-28T12:22:05;19.30;53.20
15103;DHT22;7652;53.584;9.998;2023-02-28T12:25:47;18.60;53.90
15103;DHT22;7652;53.584;9.998;2023-02-28T12:28:57;20.40;51.40
15103;DHT22;7652;53.584;9.998;2023-02-28T12:32:05;20.70;50.50
15103;DHT22;7652;53.584;9.998;2023-02-28T12:35:13;20.30;49.20
15103;DHT22;7652;53.584;9.998;2023-02-28T12:38:19;18.50;52.30
15103;DHT22;7652;53.584;9.998;2023-02-28T12:41:29;19.90;50.30
15103;DHT22;7652;53.584;9.998;2023-02-28T12:44:40;20.50;49.60
15103;DHT22;7652;53.584;9.998;2023-02-28T12:47:49;19.90;49.90
15103;DHT22;7652;53.584;9.998;2023-02-28T12:50:53;20.30;48.80
15103;DHT22;7652;53.584;9.998;2023-02-28T12:54:04;18.80;51.40
15103;DHT22;7652;53.584;9.998;2023-02-28T12:57:15;19.30;51.10
15103;DHT22;7652;53.584;9.998;2023-02-28T13:00:23;19.40;50.30
15103;DHT22;7652;53.584;9.998;2023-02-28T13:03:42;18.80;50.20
15103;DHT22;7652;53.584;9.998;2023-02-28T13:07:04;19.50;50.20
15103;DHT22;7652;53.584;9.998;2023-02-28T13:10:10;18.50;50.90
15103;DHT22;7652;53.584;9.998;2023-02-28T13:13:18;18.00;51.70
15103;DHT22;7652;53.584;9.998;2023-02-28T13:16:21;16.90;53.00
15103;DHT22;7652;53.584;9.998;2023-02-28T13:19:26;17.90;52.60
15103;DHT22;7652;53.584;9.998;2023-02-28T13:22:39;18.90;50.90
15103;DHT22;7652;53.584;9.998;2023-02-28T13:25:53;19.30;49.90
15103;DHT22;7652;53.584;9.998;2023-02-28T13:29:02;19.90;48.40
15103;DHT22;7652;53.584;9.998;2023-02-28T13:32:35;19.20;48.20
15103;DHT22;7652;53.584;9.998;2023-02-28T13:35:44;19.80;50.10
15103;DHT22;7652;53.584;9.998;2023-02-28T13:38:48;18.30;50.60
15103;DHT22;7652;53.584;9.998;2023-02-28T13:41:51;19.10;49.40
15103;DHT22;7652;53.584;9.998;2023-02-28T13:45:21;19.50;49.80
15103;DHT22;7652;53.584;9.998;2023-02-28T13:48:27;19.50;49.50
15103;DHT22;7652;53.584;9.998;2023-02-28T13:51:40;19.50;47.90
15103;DHT22;7652;53.584;9.998;2023-02-28T13:54:56;19.10;49.50
15103;DHT22;7652;53.584;9.998;2023-02-28T13:58:10;20.00;48.80
15103;DHT22;7652;53.584;9.998;2023-02-28T14:01:36;19.40;48.30
15103;DHT22;7652;53.584;9.998;2023-02-28T14:04:50;19.40;48.20
15103;DHT22;7652;53.584;9.998;2023-02-28T14:07:57;19.50;47.80
15103;DHT22;7652;53.584;9.998;2023-02-28T14:11:04;19.30;47.90
15103;DHT22;7652;53.584;9.998;2023-02-28T14:14:09;17.10;50.70
15103;DHT22;7652;53.584;9.998;2023-02-28T14:17:33;16.10;52.60
15103;DHT22;7652;53.584;9.998;2023-02-28T14:20:36;14.70;54.90
15103;DHT22;7652;53.584;9.998;2023-02-28T14:30:56;12.10;63.10
15103;DHT22;7652;53.584;9.998;2023-02-28T14:34:17;11.90;63.70
15103;DHT22;7652;53.584;9.998;2023-02-28T14:37:27;11.90;64.40
15103;DHT22;7652;53.584;9.998;2023-02-28T14:40:33;11.60;66.10
15103;DHT22;7652;53.584;9.998;2023-02-28T14:43:48;11.80;65.50
15103;DHT22;7652;53.584;9.998;2023-02-28T14:46:53;11.40;65.40
15103;DHT22;7652;53.584;9.998;2023-02-28T14:49:59;10.90;68.50
15103;DHT22;7652;53.584;9.998;2023-02-28T14:53:03;11.00;68.40
15103;DHT22;7652;53.584;9.998;2023-02-28T14:56:19;10.90;67.80
15103;DHT22;7652;53.584;9.998;2023-02-28T14:59:26;10.80;68.30
15103;DHT22;7652;53.584;9.998;2023-02-28T15:02:34;10.50;69.30
15103;DHT22;7652;53.584;9.998;2023-02-28T15:05:38;10.40;69.90
15103;DHT22;7652;53.584;9.998;2023-02-28T15:08:41;10.40;70.80
15103;DHT22;7652;53.584;9.998;2023-02-28T15:11:47;10.40;70.20
15103;DHT22;7652;53.584;9.998;2023-02-28T15:14:52;10.20;71.10
15103;DHT22;7652;53.584;9.998;2023-02-28T15:17:56;10.10;71.40
15103;DHT22;7652;53.584;9.998;2023-02-28T15:21:06;10.10;71.40
15103;DHT22;7652;53.584;9.998;2023-02-28T15:24:13;9.90;72.40
15103;DHT22;7652;53.584;9.998;2023-02-28T15:27:27;10.00;72.10
15103;DHT22;7652;53.584;9.998;2023-02-28T15:30:33;10.00;72.50
15103;DHT22;7652;53.584;9.998;2023-02-28T15:33:36;9.90;72.50
15103;DHT22;7652;53.584;9.998;2023-02-28T15:36:41;9.90;71.90
15103;DHT22;7652;53.584;9.998;2023-02-28T15:39:44;9.70;71.70
15103;DHT22;7652;53.584;9.998;2023-02-28T15:43:04;9.70;71.50
15103;DHT22;7652;53.584;9.998;2023-02-28T15:46:09;9.50;72.60
15103;DHT22;7652;53.584;9.998;2023-02-28T15:49:18;9.50;72.30
15103;DHT22;7652;53.584;9.998;2023-02-28T15:52:27;9.40;72.90
15103;DHT22;7652;53.584;9.998;2023-02-28T15:55:31;9.50;73.50
15103;DHT22;7652;53.584;9.998;2023-02-28T15:58:35;9.50;72.50
15103;DHT22;7652;53.584;9.998;2023-02-28T16:01:38;9.50;72.50
15103;DHT22;7652;53.584;9.998;2023-02-28T16:05:01;9.40;74.00
15103;DHT22;7652;53.584;9.998;2023-02-28T16:08:14;9.20;75.60
15103;DHT22;7652;53.584;9.998;2023-02-28T16:11:18;9.20;76.30
15103;DHT22;7652;53.584;9.998;2023-02-28T16:14:25;9.10;76.00
15103;DHT22;7652;53.584;9.998;2023-02-28T16:17:32;9.00;77.60
15103;DHT22;7652;53.584;9.998;2023-02-28T16:20:36;9.00;78.90
15103;DHT22;7652;53.584;9.998;2023-02-28T16:23:40;8.80;78.70
15103;DHT22;7652;53.584;9.998;2023-02-28T16:26:46;8.80;79.60
15103;DHT22;7652;53.584;9.998;2023-02-28T16:29:50;8.80;81.00
15103;DHT22;7652;53.584;9.998;2023-02-28T16:32:55;8.60;82.10
15103;DHT22;7652;53.584;9.998;2023-02-28T16:35:58;8.50;82.80
15103;DHT22;7652;53.584;9.998;2023-02-28T16:39:03;8.40;83.30
15103;DHT22;7652;53.584;9.998;2023-02-28T16:42:10;8.30;85.00
15103;DHT22;7652;53.584;9.998;2023-02-28T16:45:18;8.30;85.80
15103;DHT22;7652;53.584;9.998;2023-02-28T16:48:22;8.20;88.30
15103;DHT22;7652;53.584;9.998;2023-02-28T16:51:25;8.10;88.50
15103;DHT22;7652;53.584;9.998;2023-02-28T16:54:30;8.10;90.50
15103;DHT22;7652;53.584;9.998;2023-02-28T16:57:33;8.00;91.60
15103;DHT22;7652;53.584;9.998;2023-02-28T17:00:36;8.00;92.40
15103;DHT22;7652;53.584;9.998;2023-02-28T17:03:40;7.90;92.90
15103;DHT22;7652;53.584;9.998;2023-02-28T17:06:43;7.80;93.70
15103;DHT22;7652;53.584;9.998;2023-02-28T17:09:48;7.60;93.50
15103;DHT22;7652;53.584;9.998;2023-02-28T17:12:51;7.40;94.10
15103;DHT22;7652;53.584;9.998;2023-02-28T17:16:04;7.40;95.10
15103;DHT22;7652;53.584;9.998;2023-02-28T17:19:11;7.40;97.30
15103;DHT22;7652;53.584;9.998;2023-02-28T17:22:14;7.40;98.10
15103;DHT22;7652;53.584;9.998;2023-02-28T17:25:19;7.20;97.80
15103;DHT22;7652;53.584;9.998;2023-02-28T17:28:22;7.10;99.90
15103;DHT22;7652;53.584;9.998;2023-02-28T17:31:26;7.10;99.90
15103;DHT22;7652;53.584;9.998;2023-02-28T17:34:29;7.10;99.90
15103;DHT22;7652;53.584;9.998;2023-02-28T17:37:32;7.00;99.90
15103;DHT22;7652;53.584;9.998;2023-02-28T17:40:36;7.00;99.90
15103;DHT22;7652;53.584;9.998;2023-02-28T17:43:39;6.90;99.90
15103;DHT22;7652;53.584;9.998;2023-02-28T17:46:43;6.90;99.90
15103;DHT22;7652;53.584;9.998;2023-02-28T17:49:47;6.80;99.90
15103;DHT22;7652;53.584;9.998;2023-02-28T17:52:50;6.80;99.90
15103;DHT22;7652;53.584;9.998;2023-02-28T17:55:55;6.70;99.90
15103;DHT22;7652;53.584;9.998;2023-02-28T17:58:58;6.70;99.90
15103;DHT22;7652;53.584;9.998;2023-02-28T18:02:02;6.60;99.90
15103;DHT22;7652;53.584;9.998;2023-02-28T18:05:07;6.50;99.90
15103;DHT22;7652;53.584;9.998;2023-02-28T18:08:11;6.50;99.90
15103;DHT22;7652;53.584;9.998;2023-02-28T18:11:17;6.50;99.90
15103;DHT22;7652;53.584;9.998;2023-02-28T18:14:24;6.40;99.90
15103;DHT22;7652;53.584;9.998;2023-02-28T18:17:27;6.30;99.90
15103;DHT22;7652;53.584;9.998;2023-02-28T18:20:30;6.20;99.90
15103;DHT22;7652;53.584;9.998;2023-02-28T18:23:33;6.20;99.90
15103;DHT22;7652;53.584;9.998;2023-02-28T18:26:39;6.10;99.90
15103;DHT22;7652;53.584;9.998;2023-02-28T18:29:42;6.10;99.90
15103;DHT22;7652;53.584;9.998;2023-02-28T18:32:45;6.00;99.90
15103;DHT22;7652;53.584;9.998;2023-02-28T18:35:54;5.90;99.90
15103;DHT22;7652;53.584;9.998;2023-02-28T18:38:59;5.80;99.90
15103;DHT22;7652;53.584;9.998;2023-02-28T18:42:03;5.70;99.90
15103;DHT22;7652;53.584;9.998;2023-02-28T18:45:07;5.60;99.90
15103;DHT22;7652;53.584;9.998;2023-02-28T18:48:10;5.60;99.90
15103;DHT22;7652;53.584;9.998;2023-02-28T18:51:16;5.50;99.90
15103;DHT22;7652;53.584;9.998;2023-02-28T18:54:20;5.50;99.90
15103;DHT22;7652;53.584;9.998;2023-02-28T18:57:24;5.50;99.90
15103;DHT22;7652;53.584;9.998;2023-02-28T19:00:27;5.40;99.90
15103;DHT22;7652;53.584;9.998;2023-02-28T19:03:30;5.40;99.90
15103;DHT22;7652;53.584;9.998;2023-02-28T19:06:34;5.30;99.90
15103;DHT22;7652;53.584;9.998;2023-02-28T19:09:38;5.30;99.90
15103;DHT22;7652;53.584;9.998;2023-02-28T19:12:43;5.20;99.90
15103;DHT22;7652;53.584;9.998;2023-02-28T19:15:46;5.20;99.90
15103;DHT22;7652;53.584;9.998;2023-02-28T19:18:49;5.20;99.90
15103;DHT22;7652;53.584;9.998;2023-02-28T19:21:52;5.20;99.90
15103;DHT22;7652;53.584;9.998;2023-02-28T19:24:57;5.10;99.90
15103;DHT22;7652;53.584;9.998;2023-02-28T19:28:01;5.00;99.90
15103;DHT22;7652;53.584;9.998;2023-02-28T19:31:06;4.90;99.90
15103;DHT22;7652;53.584;9.998;2023-02-28T19:34:13;4.90;99.90
15103;DHT22;7652;53.584;9.998;2023-02-28T19:37:16;4.90;99.90
15103;DHT22;7652;53.584;9.998;2023-02-28T19:40:20;4.80;99.90
15103;DHT22;7652;53.584;9.998;2023-02-28T19:43:24;4.70;99.90
15103;DHT22;7652;53.584;9.998;2023-02-28T19:46:27;4.60;99.90
15103;DHT22;7652;53.584;9.998;2023-02-28T19:49:30;4.70;99.90
15103;DHT22;7652;53.584;9.998;2023-02-28T19:52:33;4.70;99.90
15103;DHT22;7652;53.584;9.998;2023-02-28T19:55:37;4.60;99.90
15103;DHT22;7652;53.584;9.998;2023-02-28T19:58:42;4.50;99.90
15103;DHT22;7652;53.584;9.998;2023-02-28T20:01:45;4.50;99.90
15103;DHT22;7652;53.584;9.998;2023-02-28T20:04:49;4.40;99.90
15103;DHT22;7652;53.584;9.998;2023-02-28T20:07:52;4.30;99.90
15103;DHT22;7652;53.584;9.998;2023-02-28T20:10:55;4.30;99.90
15103;DHT22;7652;53.584;9.998;2023-02-28T20:14:04;4.30;99.90
15103;DHT22;7652;53.584;9.998;2023-02-28T20:17:07;4.30;99.90
15103;DHT22;7652;53.584;9.998;2023-02-28T20:20:11;4.30;99.90
15103;DHT22;7652;53.584;9.998;2023-02-28T20:23:14;4.40;99.90
15103;DHT22;7652;53.584;9.998;2023-02-28T20:26:17;4.30;99.90